Weather History for PAPH - November, 2014

Change the Weather History Date:

Monday, November 10, 2014

  Actual Average Record
Temperature  
Mean Temperature 44 °F -  
Max Temperature 48 °F 36 °F 50 °F (2000)
Min Temperature 39 °F 27 °F 15 °F (2002)
Degree Days  
Heating Degree Days 22    
Moisture  
Dew Point 32 °F    
Average Humidity 64    
Maximum Humidity 76    
Minimum Humidity 49    
Precipitation  
Precipitation 0.03 in - - ()
Sea Level Pressure  
Sea Level Pressure 29.62 in    
Wind  
Wind Speed 21 mph (SSE)    
Max Wind Speed 31 mph    
Max Gust Speed 38 mph    
Visibility 10 miles    
Events      
Averages and records for this station are not official NWS values.
T = Trace of Precipitation, MM = Missing Value Source: NWS Daily Summary

Daily Weather History Graph

Daily Weather History Graph

Search for Another Location

Airport or City:

Trip Planner

Search our weather history database for the weather conditions in past years. The results will help you decide how hot, cold, wet, or windy it might be!

Date:

Astronomy

Nov. 10, 2014 Rise Set
Actual Time 9:05 AM AKST 5:30 PM AKST
Civil Twilight 8:22 AM AKST 6:13 PM AKST
Nautical Twilight 7:36 AM AKST 6:59 PM AKST
Astronomical Twilight 6:51 AM AKST 7:44 PM AKST
Moon 9:02 PM AKST (11/10) 12:44 PM AKST (11/10)
Length of Visible Light 9h 50m
Length of Day
8h 25m
Waning Gibbous, 83% of the Moon is Illuminated
Nov 10
Waning Gibbous
Nov 14
Last Quarter
Nov 22
New
Nov 29
First Quarter
Dec 6
Full

Hourly Weather History & Observations

Time (AKST) Temp. Windchill Dew Point Humidity Pressure Visibility Wind Dir Wind Speed Gust Speed Precip Events Conditions
12:16 AM 42.8 °F 34.5 °F 30.2 °F 61% 29.51 in 10.0 mi SSE 18.4 mph - N/A   Clear
12:36 AM 42.8 °F 33.8 °F 32.0 °F 66% 29.51 in 10.0 mi SSE 21.9 mph 27.6 mph N/A   Clear
12:56 AM 42.8 °F 33.3 °F 32.0 °F 66% 29.52 in 10.0 mi SSE 24.2 mph - N/A   Partly Cloudy
1:16 AM 42.8 °F 33.5 °F 32.0 °F 66% 29.53 in 10.0 mi SSE 23.0 mph 29.9 mph N/A   Clear
1:36 AM 42.8 °F 34.3 °F 32.0 °F 66% 29.53 in 10.0 mi SSE 19.6 mph 28.8 mph N/A   Clear
1:56 AM 42.8 °F 34.3 °F 32.0 °F 66% 29.53 in 10.0 mi SSE 19.6 mph - N/A   Clear
2:16 AM 42.8 °F 33.5 °F 30.2 °F 61% 29.53 in 10.0 mi SSE 23.0 mph 27.6 mph N/A   Clear
2:36 AM 42.8 °F 33.8 °F 30.2 °F 61% 29.53 in 10.0 mi SSE 21.9 mph 28.8 mph N/A   Clear
2:56 AM 42.8 °F 32.5 °F 32.0 °F 66% 29.52 in 10.0 mi SSE 28.8 mph 34.5 mph N/A   Clear
3:16 AM 42.8 °F 34.3 °F 30.2 °F 61% 29.55 in 10.0 mi SSE 19.6 mph 31.1 mph N/A   Clear
3:36 AM 42.8 °F 34.0 °F 30.2 °F 61% 29.55 in 10.0 mi SSE 20.7 mph 25.3 mph N/A   Clear
3:56 AM 42.8 °F 35.8 °F 32.0 °F 66% 29.56 in 10.0 mi SSE 13.8 mph 18.4 mph N/A   Clear
4:16 AM 42.8 °F 34.3 °F 30.2 °F 61% 29.56 in 10.0 mi SSE 19.6 mph - N/A   Clear
4:36 AM 41.0 °F 32.2 °F 30.2 °F 65% 29.57 in 10.0 mi SSE 18.4 mph 21.9 mph N/A   Clear
4:56 AM 42.8 °F 34.5 °F 30.2 °F 61% 29.56 in 10.0 mi SSE 18.4 mph - N/A   Clear
5:16 AM 42.8 °F 34.8 °F 30.2 °F 61% 29.57 in 10.0 mi SSE 17.3 mph - N/A   Clear
5:36 AM 41.0 °F 31.6 °F 32.0 °F 70% 29.57 in 10.0 mi SSE 20.7 mph 24.2 mph N/A   Clear
5:56 AM 42.8 °F 33.3 °F 30.2 °F 61% 29.57 in 10.0 mi SSE 24.2 mph 27.6 mph N/A   Clear
6:16 AM 42.8 °F 34.8 °F 30.2 °F 61% 29.58 in 10.0 mi SSE 17.3 mph - N/A   Clear
6:36 AM 41.0 °F 33.1 °F 30.2 °F 65% 29.59 in 10.0 mi SSE 15.0 mph - N/A   Clear
6:56 AM 42.8 °F 37.5 °F 30.2 °F 61% 29.59 in 10.0 mi South 9.2 mph 17.3 mph N/A   Clear
7:16 AM 42.8 °F 34.8 °F 30.2 °F 61% 29.59 in 10.0 mi SSE 17.3 mph 23.0 mph N/A   Clear
7:36 AM 42.8 °F 33.8 °F 30.2 °F 61% 29.59 in 10.0 mi SSE 21.9 mph 26.5 mph N/A   Clear
7:56 AM 42.8 °F 34.0 °F 32.0 °F 66% 29.58 in 10.0 mi SSE 20.7 mph 25.3 mph N/A   Clear
8:16 AM 42.8 °F 34.0 °F 32.0 °F 66% 29.59 in 10.0 mi SE 20.7 mph 25.3 mph N/A   Clear
8:36 AM 42.8 °F 34.0 °F 30.2 °F 61% 29.59 in 10.0 mi SSE 20.7 mph - N/A   Clear
8:56 AM 42.8 °F 34.3 °F 30.2 °F 61% 29.60 in 10.0 mi SE 19.6 mph - N/A   Clear
9:16 AM 42.8 °F 33.8 °F 32.0 °F 66% 29.60 in 10.0 mi SSE 21.9 mph - N/A   Clear
9:36 AM 42.8 °F 34.0 °F 30.2 °F 61% 29.60 in 10.0 mi SSE 20.7 mph - N/A   Clear
9:56 AM 42.8 °F 34.0 °F 30.2 °F 61% 29.61 in 10.0 mi SSE 20.7 mph 25.3 mph N/A   Partly Cloudy
10:16 AM 42.8 °F 35.4 °F 30.2 °F 61% 29.62 in 10.0 mi SSE 15.0 mph - N/A   Clear
10:36 AM 44.6 °F 37.2 °F 30.2 °F 57% 29.62 in 10.0 mi SSE 17.3 mph - N/A   Clear
10:56 AM 44.6 °F 36.1 °F 30.2 °F 57% 29.61 in 10.0 mi SE 21.9 mph 26.5 mph N/A   Clear
11:16 AM 44.6 °F 36.1 °F 32.0 °F 61% 29.62 in 10.0 mi SSE 21.9 mph 28.8 mph N/A   Clear
11:36 AM 46.4 °F 37.9 °F 30.2 °F 53% 29.62 in 10.0 mi SE 25.3 mph 29.9 mph N/A   Clear
11:56 AM 46.4 °F 38.1 °F 30.2 °F 53% 29.62 in 10.0 mi SSE 24.2 mph 31.1 mph N/A   Clear
12:16 PM 44.6 °F 35.9 °F 30.2 °F 57% 29.63 in 10.0 mi SSE 23.0 mph 27.6 mph N/A   Clear
12:36 PM 46.4 °F 38.7 °F 30.2 °F 53% 29.64 in 10.0 mi SSE 20.7 mph 27.6 mph N/A   Mostly Cloudy
12:56 PM 46.4 °F 37.9 °F 32.0 °F 57% 29.64 in 10.0 mi SSE 25.3 mph 29.9 mph N/A   Partly Cloudy
1:16 PM 48.2 °F - 32.0 °F 54% 29.63 in 10.0 mi SSE 31.1 mph 38.0 mph N/A   Clear
1:36 PM 48.2 °F - 32.0 °F 54% 29.62 in 10.0 mi SE 29.9 mph 38.0 mph N/A   Clear
1:56 PM 48.2 °F - 32.0 °F 54% 29.63 in 10.0 mi SE 27.6 mph 33.4 mph N/A   Clear
2:16 PM 46.4 °F 37.9 °F 30.2 °F 53% 29.63 in 10.0 mi SE 25.3 mph - N/A   Partly Cloudy
2:36 PM 46.4 °F 38.3 °F 33.8 °F 62% 29.64 in 10.0 mi SSE 23.0 mph 31.1 mph N/A   Mostly Cloudy
2:56 PM 44.6 °F 36.6 °F 33.8 °F 66% 29.65 in 10.0 mi SE 19.6 mph - N/A   Mostly Cloudy
3:16 PM 44.6 °F 36.4 °F 33.8 °F 66% 29.66 in 10.0 mi SSE 20.7 mph - N/A   Scattered Clouds
3:36 PM 46.4 °F 38.7 °F 32.0 °F 57% 29.65 in 10.0 mi SSE 20.7 mph 28.8 mph N/A   Mostly Cloudy
3:56 PM 44.6 °F 36.1 °F 32.0 °F 61% 29.66 in 10.0 mi SE 21.9 mph 26.5 mph N/A   Overcast
4:16 PM 44.6 °F 35.9 °F 32.0 °F 61% 29.66 in 10.0 mi SSE 23.0 mph 27.6 mph N/A   Scattered Clouds
4:36 PM 44.6 °F 36.4 °F 33.8 °F 66% 29.66 in 10.0 mi SE 20.7 mph - N/A   Clear
4:56 PM 42.8 °F 34.5 °F 33.8 °F 70% 29.66 in 10.0 mi SE 18.4 mph 25.3 mph N/A   Partly Cloudy
5:16 PM 42.8 °F 34.0 °F 33.8 °F 70% 29.66 in 10.0 mi SE 20.7 mph 27.6 mph N/A   Clear
5:36 PM 42.8 °F 34.3 °F 33.8 °F 70% 29.67 in 10.0 mi SE 19.6 mph - N/A   Mostly Cloudy
5:56 PM 42.8 °F 35.4 °F 33.8 °F 70% 29.68 in 10.0 mi SE 15.0 mph - N/A   Overcast
6:16 PM 42.8 °F 34.3 °F 35.6 °F 76% 29.68 in 10.0 mi SE 19.6 mph 24.2 mph N/A   Overcast
6:36 PM 42.8 °F 33.8 °F 33.8 °F 70% 29.68 in 10.0 mi SSE 21.9 mph - 0.01 in   Overcast
6:56 PM 42.8 °F 34.3 °F 35.6 °F 76% 29.68 in 10.0 mi SE 19.6 mph - 0.01 in   Overcast
7:16 PM 42.8 °F 34.8 °F 35.6 °F 76% 29.69 in 10.0 mi SSE 17.3 mph - 0.01 in   Overcast
7:36 PM 42.8 °F 34.5 °F 35.6 °F 76% 29.69 in 10.0 mi SE 18.4 mph 23.0 mph 0.02 in   Overcast
7:56 PM 42.8 °F 34.3 °F 33.8 °F 70% 29.69 in 10.0 mi SSE 19.6 mph - 0.02 in   Overcast
8:16 PM 42.8 °F 34.5 °F 33.8 °F 70% 29.69 in 10.0 mi SSE 18.4 mph - N/A   Overcast
8:36 PM 42.8 °F 34.5 °F 33.8 °F 70% 29.70 in 10.0 mi SE 18.4 mph 24.2 mph N/A   Overcast
8:56 PM 42.8 °F 33.3 °F 33.8 °F 70% 29.69 in 10.0 mi SE 24.2 mph 27.6 mph N/A   Overcast
9:16 PM 42.8 °F 34.3 °F 33.8 °F 70% 29.69 in 10.0 mi SE 19.6 mph - N/A   Mostly Cloudy
9:36 PM 41.0 °F 32.2 °F 33.8 °F 76% 29.69 in 10.0 mi SE 18.4 mph - N/A   Scattered Clouds
9:56 PM 42.8 °F 34.0 °F 33.8 °F 70% 29.68 in 10.0 mi SE 20.7 mph 26.5 mph N/A   Partly Cloudy
10:16 PM 42.8 °F 34.3 °F 32.0 °F 66% 29.68 in 10.0 mi SE 19.6 mph - N/A   Partly Cloudy
10:36 PM 42.8 °F 33.8 °F 33.8 °F 70% 29.69 in 10.0 mi SE 21.9 mph 27.6 mph N/A   Mostly Cloudy
10:56 PM 42.8 °F 34.3 °F 33.8 °F 70% 29.70 in 10.0 mi SSE 19.6 mph 25.3 mph N/A   Mostly Cloudy
11:16 PM 42.8 °F 34.8 °F 33.8 °F 70% 29.70 in 10.0 mi SE 17.3 mph - N/A   Overcast
11:36 PM 41.0 °F 32.8 °F 33.8 °F 76% 29.69 in 10.0 mi SE 16.1 mph 21.9 mph N/A   Overcast
11:56 PM 41.0 °F 32.2 °F 33.8 °F 76% 29.68 in 10.0 mi SE 18.4 mph - N/A   Overcast